createdAt,value
2023-07-24T00:00:46.937Z,999.8
2023-07-24T00:10:53.029Z,999.5
2023-07-24T00:20:59.042Z,999.5
2023-07-24T00:31:05.129Z,999.3
2023-07-24T00:41:11.124Z,999.1
2023-07-24T00:51:17.184Z,999.2
2023-07-24T01:01:23.213Z,999.1
2023-07-24T01:11:28.293Z,999
2023-07-24T01:21:34.461Z,998.9
2023-07-24T01:31:40.367Z,998.9
2023-07-24T01:41:46.415Z,998.8
2023-07-24T01:51:52.488Z,998.7
2023-07-24T02:01:58.570Z,998.6
2023-07-24T02:12:04.557Z,998.7
2023-07-24T02:22:10.598Z,998.5
2023-07-24T02:32:16.649Z,998.2
2023-07-24T02:42:22.696Z,998.2
2023-07-24T02:52:28.735Z,998.1
2023-07-24T03:02:34.778Z,998.1
2023-07-24T03:12:40.804Z,998
2023-07-24T03:22:45.877Z,997.9
2023-07-24T03:32:51.927Z,997.9
2023-07-24T03:42:57.976Z,997.5
2023-07-24T03:53:04.061Z,997.3
2023-07-24T04:03:10.065Z,997.2
2023-07-24T04:13:16.111Z,997.2
2023-07-24T04:23:22.147Z,997.3
2023-07-24T04:33:28.215Z,997.3
2023-07-24T04:43:34.263Z,997.3
2023-07-24T04:53:40.309Z,997.2
2023-07-24T05:03:46.325Z,997.2
2023-07-24T05:13:52.388Z,997.4
2023-07-24T05:23:58.437Z,997.4
2023-07-24T05:34:03.490Z,997.3
2023-07-24T05:44:09.525Z,997.3
2023-07-24T05:54:15.570Z,997.3
2023-07-24T06:04:21.624Z,997.4
2023-07-24T06:14:27.670Z,997.6
2023-07-24T06:34:39.831Z,997.6
2023-07-24T06:44:45.807Z,997.3
2023-07-24T06:54:51.872Z,997.3
2023-07-24T07:04:57.911Z,997.5
2023-07-24T07:15:04.000Z,997.4
2023-07-24T07:35:16.081Z,997.5
2023-07-24T07:45:21.089Z,997.5
2023-07-24T07:55:27.156Z,997.6
2023-07-24T08:05:33.196Z,997.6
2023-07-24T08:15:39.274Z,997.7
2023-07-24T08:25:45.286Z,997.6
2023-07-24T08:35:51.354Z,997.6
2023-07-24T08:45:57.367Z,997.5
2023-07-24T08:56:03.412Z,997.5
2023-07-24T09:06:09.652Z,997.5
2023-07-24T09:16:15.493Z,997.4
2023-07-24T09:26:21.607Z,997.5
2023-07-24T09:36:27.658Z,997.4
2023-07-24T09:46:33.636Z,997.5
2023-07-24T09:56:38.754Z,997.3
2023-07-24T10:06:44.756Z,997.2
2023-07-24T10:16:50.809Z,997
2023-07-24T10:26:56.845Z,997
2023-07-24T10:37:02.886Z,997.1
2023-07-24T10:47:08.931Z,997.1
2023-07-24T10:57:14.976Z,997
2023-07-24T11:07:21.115Z,996.9
2023-07-24T11:27:33.116Z,996.7
2023-07-24T11:37:39.154Z,996.7
2023-07-24T11:47:45.293Z,996.7
2023-07-24T11:57:51.239Z,996.6
2023-07-24T12:07:56.436Z,996.5
2023-07-24T12:18:02.373Z,996.8
2023-07-24T12:28:08.403Z,997
2023-07-24T12:38:14.450Z,997.2
2023-07-24T12:48:20.494Z,997.1
2023-07-24T12:58:26.539Z,996.4
2023-07-24T13:08:32.792Z,997
2023-07-24T13:18:38.706Z,996.7
2023-07-24T13:28:44.670Z,996.4
2023-07-24T13:38:50.715Z,996.4
2023-07-24T13:48:56.756Z,996.2
2023-07-24T13:59:02.817Z,996
2023-07-24T14:09:08.871Z,996
2023-07-24T14:19:13.922Z,996
2023-07-24T14:29:20.026Z,995.7
2023-07-24T14:39:26.093Z,995.5
2023-07-24T14:49:32.063Z,995.4
2023-07-24T14:59:38.099Z,995.4
2023-07-24T15:09:44.160Z,995.2
2023-07-24T15:19:50.208Z,995.3
2023-07-24T15:29:56.296Z,995.3
2023-07-24T15:40:02.274Z,995.3
2023-07-24T15:50:08.333Z,995.4
2023-07-24T16:00:14.372Z,995.6
2023-07-24T16:10:20.418Z,995.7
2023-07-24T16:20:26.466Z,995.8
2023-07-24T16:30:31.593Z,996
2023-07-24T16:40:37.582Z,996.2
2023-07-24T16:50:43.616Z,996.4
2023-07-24T17:00:49.665Z,996.5
2023-07-24T17:10:55.704Z,996.7
2023-07-24T17:21:01.747Z,996.7
2023-07-24T17:31:07.829Z,997
2023-07-24T17:41:13.839Z,997
2023-07-24T17:51:20.009Z,997.1
2023-07-24T18:01:25.922Z,997
2023-07-24T18:11:32.041Z,997.2
2023-07-24T18:21:38.025Z,997.3
2023-07-24T18:31:44.088Z,997.5
2023-07-24T18:41:49.156Z,997.5
2023-07-24T18:51:55.205Z,997.6
2023-07-24T19:02:01.333Z,998
2023-07-24T19:12:07.285Z,998
2023-07-24T19:22:13.328Z,998.1
2023-07-24T19:32:19.359Z,998.3
2023-07-24T19:42:25.418Z,998.4
2023-07-24T19:52:31.444Z,998.5
2023-07-24T20:02:37.493Z,998.7
2023-07-24T20:12:43.530Z,998.9
2023-07-24T20:22:49.730Z,999.1
2023-07-24T20:32:55.634Z,999.3
2023-07-24T20:43:01.864Z,999.3
2023-07-24T20:53:06.751Z,999.4
2023-07-24T21:03:12.033Z,999.6
2023-07-24T21:13:17.985Z,999.7
2023-07-24T21:23:23.896Z,999.7
2023-07-24T21:33:30.060Z,999.8
2023-07-24T21:43:36.049Z,999.8
2023-07-24T21:53:42.191Z,999.7
2023-07-24T22:03:48.141Z,999.9
2023-07-24T22:13:54.126Z,1000
2023-07-24T22:24:00.232Z,1000
2023-07-24T22:34:06.330Z,1000.1
2023-07-24T22:44:12.267Z,1000.1
2023-07-24T22:54:18.394Z,1000.1
2023-07-24T23:04:24.352Z,1000.2
2023-07-24T23:14:29.469Z,1000.2
2023-07-24T23:24:35.497Z,1000.2
2023-07-24T23:34:41.501Z,1000
2023-07-24T23:44:47.547Z,1000.1
2023-07-24T23:54:53.603Z,1000.1
